Stations météo

réclame
Mon MeteoGroup
Stockholm/Tullinge, Suède (2469): Température de l'air & dewpoint: 15.08.2018 06:00:00 - 21.08.2018 06:00:00 (CEST)Stockholm/Tullinge, Suède (2469): Vitesse du vent & gusts: 15.08.2018 06:00:00 - 21.08.2018 06:00:00 (CEST)Stockholm/Tullinge, Suède (2469): Direction du vent: 15.08.2018 06:00:00 - 21.08.2018 06:00:00 (CEST)Stockholm/Tullinge, Suède (2469): visibility: 15.08.2018 06:00:00 - 21.08.2018 06:00:00 (CEST)Stockholm/Tullinge, Suède (2469): Quantités de précipitations: 15.08.2018 06:00:00 - 21.08.2018 06:00:00 (CEST)
Date & Time tt [°C] td [°C] ff [km/h] ff [knt] fx [km/h] fx [knt] dd vv [km] rr [mm]
21.08.2018 06:00:00 - - - - - - - - -
21.08.2018 05:00:00 10,4 7,1 10 6 19 11 WNW 50 0,0
21.08.2018 04:00:00 10,7 7,8 9 5 16 9 WNW 50 0,0
21.08.2018 03:00:00 7,1 6,5 6 3 11 6 WNW 50 0,0
21.08.2018 02:00:00 7,8 7,0 6 3 8 5 WSW 50 0,0
21.08.2018 01:00:00 11,8 7,3 8 4 20 11 WNW 50 0,0
21.08.2018 00:00:00 9,8 8,4 5 3 13 7 NW 50 0,0
20.08.2018 23:00:00 12,8 7,5 6 3 18 10 W 50 0,0
20.08.2018 22:00:00 14,2 9,0 12 7 23 12 NNW 50 0,0
20.08.2018 21:00:00 14,4 9,2 11 6 22 12 N 50 0,0
20.08.2018 20:00:00 15,3 10,1 11 6 23 12 N 50 0,0
20.08.2018 19:00:00 16,9 10,5 13 7 26 14 NNW 50 0,0
20.08.2018 18:00:00 18,5 10,8 4 2 24 13 NNW 48 0,0
20.08.2018 17:00:00 17,9 11,7 13 7 29 16 NNW 50 0,0
20.08.2018 16:00:00 17,6 11,8 4 2 13 7 WNW 50 0,0
20.08.2018 15:00:00 18,2 12,0 0 0 16 9 N 44 0,0
20.08.2018 14:00:00 16,6 14,4 0 0 14 8 N 32 0,0
20.08.2018 13:00:00 16,7 13,4 0 0 0 0 N 25 0,2
20.08.2018 12:00:00 16,2 13,9 0 0 0 0 N 26 0,1
20.08.2018 11:00:00 15,5 13,9 0 0 4 2 N 16 0,3
20.08.2018 10:00:00 14,9 13,1 0 0 6 3 N 13 0,4
20.08.2018 09:00:00 15,4 12,7 0 0 6 3 N 36 0,0
20.08.2018 08:00:00 14,9 13,3 0 0 9 5 N 40 0,0
20.08.2018 07:00:00 13,4 12,9 0 0 2 1 N 31 0,0
20.08.2018 06:00:00 13,0 12,7 0 0 3 2 N 30 0,0
20.08.2018 05:00:00 12,7 12,5 3 1 4 2 SSE 18 0,0
20.08.2018 04:00:00 12,5 12,2 3 2 5 3 ESE 19 0,2
20.08.2018 03:00:00 13,0 11,7 2 1 5 3 S 18 0,1
20.08.2018 02:00:00 12,7 11,1 0 0 4 2 N 31 0,0
20.08.2018 01:00:00 12,6 11,0 2 1 5 3 SE 50 0,0
20.08.2018 00:00:00 12,4 10,8 3 2 5 3 SE 48 0,0
19.08.2018 23:00:00 13,0 10,4 0 0 3 2 N 50 0,0
19.08.2018 22:00:00 13,3 10,1 0 0 5 3 N 50 0,0
19.08.2018 21:00:00 13,7 9,9 2 1 5 3 SW 50 0,0
19.08.2018 20:00:00 15,6 9,5 0 0 9 5 N 50 0,0
19.08.2018 19:00:00 19,1 8,7 0 0 11 6 N 50 0,0
19.08.2018 18:00:00 19,5 8,5 2 1 20 11 WSW 50 0,0
19.08.2018 17:00:00 20,0 8,4 10 5 23 13 WSW 47 0,0
19.08.2018 16:00:00 20,4 8,1 5 3 32 17 W 47 0,0
19.08.2018 15:00:00 20,5 8,5 5 3 33 18 W 43 0,0
19.08.2018 14:00:00 20,8 8,4 5 3 29 16 W 40 0,0
19.08.2018 13:00:00 19,7 9,6 5 3 35 19 W 41 0,0
19.08.2018 12:00:00 20,2 8,5 15 8 37 20 W 43 0,0
19.08.2018 11:00:00 18,3 8,8 19 11 40 22 W 35 0,0
19.08.2018 10:00:00 18,3 9,6 18 10 40 21 W 38 0,0
19.08.2018 09:00:00 17,9 9,8 25 13 45 25 WSW 37 0,0
19.08.2018 08:00:00 17,5 10,8 21 12 39 21 W 47 0,0
19.08.2018 07:00:00 17,0 10,4 18 10 35 19 W 46 0,0
19.08.2018 06:00:00 17,2 11,5 19 10 31 17 W 50 0,0
19.08.2018 05:00:00 17,4 14,1 13 7 31 17 SW 50 0,0
19.08.2018 04:00:00 17,4 14,3 15 8 28 15 SW 50 0,0
19.08.2018 03:00:00 17,4 14,1 13 7 29 16 SSW 50 0,0
19.08.2018 02:00:00 17,5 13,8 13 7 29 15 SSW 50 0,0
19.08.2018 01:00:00 17,8 13,3 11 6 29 16 SSW 50 0,0
19.08.2018 00:00:00 18,1 12,5 12 6 29 16 SSW 49 0,1
18.08.2018 23:00:00 18,1 12,5 9 5 33 18 SSW 50 0,0
18.08.2018 22:00:00 18,4 12,2 14 7 27 15 SSW 49 0,4
18.08.2018 21:00:00 18,9 11,5 8 4 37 20 SSW 50 0,0
18.08.2018 20:00:00 19,2 11,5 5 3 18 10 SSW 50 0,0
18.08.2018 19:00:00 19,2 12,2 4 2 24 13 S 50 0,0
18.08.2018 18:00:00 19,9 11,9 5 3 27 15 SSW 50 0,0
18.08.2018 17:00:00 20,9 12,3 4 2 27 15 S 47 0,0
18.08.2018 16:00:00 20,9 11,8 6 3 35 19 S 42 0,0
18.08.2018 15:00:00 20,8 11,2 12 7 31 17 S 35 0,0
18.08.2018 14:00:00 21,4 10,2 7 4 34 18 SW 42 0,0
18.08.2018 13:00:00 21,0 9,6 8 4 32 17 SW 44 0,0
18.08.2018 12:00:00 20,1 10,5 10 5 25 14 WSW 33 0,0
18.08.2018 11:00:00 18,9 11,0 10 6 22 12 SSW 39 0,0
18.08.2018 10:00:00 18,1 13,0 8 5 20 11 WSW 39 0,0
18.08.2018 09:00:00 16,4 13,1 12 7 20 11 WSW 38 0,0
18.08.2018 08:00:00 15,3 12,8 9 5 15 8 WSW 35 0,0
18.08.2018 07:00:00 12,4 12,4 0 0 3 2 N 25 0,0
18.08.2018 06:00:00 9,0 9,0 0 0 3 2 N 0,4 0,0
18.08.2018 05:00:00 8,8 8,8 0 0 8 5 N 0,4 0,0
18.08.2018 04:00:00 9,7 9,7 0 0 7 4 N 0,2 0,0
18.08.2018 03:00:00 10,9 10,9 0 0 4 2 N 0,2 0,0
18.08.2018 02:00:00 10,5 10,5 2 1 3 2 SE 0,2 0,0
18.08.2018 01:00:00 12,9 12,7 0 0 2 1 N 0,2 0,0
18.08.2018 00:00:00 14,2 14,0 2 1 4 2 SW 0,5 0,0
17.08.2018 23:00:00 16,0 15,5 0 0 10 5 N 12 0,0
17.08.2018 22:00:00 17,2 16,2 4 2 11 6 WNW 21 0,8
17.08.2018 21:00:00 17,6 17,3 0 0 0 0 N 11 1,9
17.08.2018 20:00:00 18,0 17,5 0 0 12 7 N 6 3,6
17.08.2018 19:00:00 18,2 17,4 0 0 12 6 N 16 2,5
17.08.2018 18:00:00 19,0 16,4 8 4 29 16 SSW 16 0,3
17.08.2018 17:00:00 23,0 14,3 0 0 24 13 N 47 0,0
17.08.2018 16:00:00 23,2 13,7 6 3 37 20 SSW 49 0,0
17.08.2018 15:00:00 25,8 13,0 11 6 36 20 S 35 0,0
17.08.2018 14:00:00 25,2 15,8 4 2 34 18 S 45 0,0
17.08.2018 13:00:00 23,8 16,1 7 4 34 19 SSW 38 0,0
17.08.2018 12:00:00 23,7 16,2 13 7 32 17 SSW 39 0,0
17.08.2018 11:00:00 23,9 16,9 3 2 28 15 S 42 0,0
17.08.2018 10:00:00 22,5 16,8 10 5 26 14 S 39 0,0
17.08.2018 09:00:00 21,4 17,0 10 5 31 17 S 44 0,0
17.08.2018 08:00:00 20,9 16,9 7 4 26 14 S 42 0,0
17.08.2018 07:00:00 19,3 16,9 5 3 22 12 S 26 0,0
17.08.2018 06:00:00 18,6 16,6 4 2 20 11 S 14 0,0
17.08.2018 05:00:00 18,5 16,7 7 4 23 13 S 12 0,0
17.08.2018 04:00:00 18,8 16,4 8 4 22 12 S 21 0,0
17.08.2018 03:00:00 18,6 16,6 6 4 18 10 SSW 19 0,0
17.08.2018 02:00:00 18,9 17,0 3 2 16 8 S 18 0,0
17.08.2018 01:00:00 18,9 17,2 4 2 16 9 S 17 0,0
17.08.2018 00:00:00 19,1 17,4 3 2 20 11 S 19 0,0
16.08.2018 23:00:00 19,3 17,4 0 0 21 11 N 28 0,0
16.08.2018 22:00:00 19,7 17,1 5 3 18 10 S 34 0,0
16.08.2018 21:00:00 19,8 16,8 4 2 21 11 S 38 0,0
16.08.2018 20:00:00 20,2 16,1 7 4 26 14 S 50 0,0
16.08.2018 19:00:00 20,7 15,7 4 2 26 14 S 50 0,0
16.08.2018 18:00:00 21,4 15,0 9 5 24 13 S 50 0,0
16.08.2018 17:00:00 22,4 15,5 3 2 31 17 SSW 49 0,0
16.08.2018 16:00:00 22,6 14,9 3 2 26 14 SSW 50 0,0
16.08.2018 15:00:00 24,1 14,5 4 2 25 14 S 50 0,0
16.08.2018 14:00:00 23,0 12,9 10 5 29 16 SSW 42 0,0
16.08.2018 13:00:00 23,7 13,3 3 2 29 16 S 45 0,0
16.08.2018 12:00:00 22,9 13,7 0 0 27 15 N 50 0,0
16.08.2018 11:00:00 22,0 13,6 5 3 23 12 S 45 0,0
16.08.2018 10:00:00 21,3 14,5 4 2 17 9 SSW 50 0,0
16.08.2018 09:00:00 19,9 14,3 5 3 17 9 S 48 0,0
16.08.2018 08:00:00 17,5 14,8 0 0 2 1 N 50 0,0
16.08.2018 07:00:00 13,8 13,8 0 0 4 2 N 46 0,0
16.08.2018 06:00:00 10,6 10,6 0 0 5 3 N 0,5 0,0
16.08.2018 05:00:00 11,6 11,6 0 0 2 1 N 0,4 0,0
16.08.2018 04:00:00 12,4 12,4 4 2 5 3 SE 1,9 0,0
16.08.2018 03:00:00 11,9 11,9 4 2 6 3 SE 34 0,0
16.08.2018 02:00:00 9,9 9,7 0 0 6 4 N 0,5 0,0
16.08.2018 01:00:00 10,4 10,4 0 0 6 4 N 0,4 0,0
16.08.2018 00:00:00 12,3 12,1 3 2 6 3 SE 3,4 0,0
15.08.2018 23:00:00 12,7 11,9 0 0 12 6 N 43 0,0
15.08.2018 22:00:00 14,8 13,0 6 4 11 6 S 50 0,0
15.08.2018 21:00:00 15,3 12,6 6 3 16 8 SSE 50 0,0
15.08.2018 20:00:00 17,3 13,4 3 2 11 6 SSE 50 0,0
15.08.2018 19:00:00 18,4 13,3 0 0 13 7 N 50 0,0
15.08.2018 18:00:00 20,1 13,1 6 3 19 10 SE 49 0,0
15.08.2018 17:00:00 20,8 10,9 0 0 6 4 N 50 0,0
15.08.2018 16:00:00 20,6 10,7 0 0 11 6 N 50 0,0
15.08.2018 15:00:00 19,6 11,4 2 1 11 6 NE 50 0,0
15.08.2018 14:00:00 19,4 11,4 0 0 16 9 N 50 0,0
15.08.2018 13:00:00 19,0 10,5 0 0 15 8 N 47 0,0
15.08.2018 12:00:00 17,8 12,5 5 3 19 11 N 44 0,0
15.08.2018 11:00:00 16,8 13,7 0 0 14 8 N 50 0,0
15.08.2018 10:00:00 16,4 13,3 5 3 19 10 NNE 50 0,0
15.08.2018 09:00:00 15,4 13,4 8 4 16 9 NNE 50 0,0
15.08.2018 08:00:00 14,6 13,8 8 5 16 8 NNE 50 0,0
15.08.2018 07:00:00 13,9 13,4 8 4 13 7 N 27 0,1
15.08.2018 06:00:00 13,5 13,0 7 4 11 6 NNE 12 0,0

tt = Température de l'air
td = dewpoint
ff = Vitesse du vent
fx = gusts
dd = Direction du vent
vv = visibility
rr = Quantités de précipitations

stations d'obs. à proximité